sensor_id;sensor_type;location;lat;lon;timestamp;P1;durP1;ratioP1;P2;durP2;ratioP2
17566;SDS011;8901;52.088;5.084;2022-08-25T00:01:22;9.65;;;8.07;;
17566;SDS011;8901;52.088;5.084;2022-08-25T00:03:53;13.63;;;8.07;;
17566;SDS011;8901;52.088;5.084;2022-08-25T00:06:20;9.30;;;7.70;;
17566;SDS011;8901;52.088;5.084;2022-08-25T00:08:47;10.10;;;8.02;;
17566;SDS011;8901;52.088;5.084;2022-08-25T00:11:16;10.43;;;8.80;;
17566;SDS011;8901;52.088;5.084;2022-08-25T00:13:45;10.73;;;7.93;;
17566;SDS011;8901;52.088;5.084;2022-08-25T00:16:15;13.18;;;8.27;;
17566;SDS011;8901;52.088;5.084;2022-08-25T00:18:44;9.35;;;7.93;;
17566;SDS011;8901;52.088;5.084;2022-08-25T00:21:15;9.88;;;8.20;;
17566;SDS011;8901;52.088;5.084;2022-08-25T00:23:42;9.45;;;8.02;;
17566;SDS011;8901;52.088;5.084;2022-08-25T00:26:10;10.95;;;7.70;;
17566;SDS011;8901;52.088;5.084;2022-08-25T00:28:37;9.80;;;8.18;;
17566;SDS011;8901;52.088;5.084;2022-08-25T00:31:04;9.50;;;8.23;;
17566;SDS011;8901;52.088;5.084;2022-08-25T00:33:32;10.57;;;8.63;;
17566;SDS011;8901;52.088;5.084;2022-08-25T00:35:59;9.30;;;8.18;;
17566;SDS011;8901;52.088;5.084;2022-08-25T00:38:38;10.30;;;7.32;;
17566;SDS011;8901;52.088;5.084;2022-08-25T00:41:06;9.48;;;7.95;;
17566;SDS011;8901;52.088;5.084;2022-08-25T00:43:50;8.88;;;8.00;;
17566;SDS011;8901;52.088;5.084;2022-08-25T00:46:20;9.07;;;7.50;;
17566;SDS011;8901;52.088;5.084;2022-08-25T00:48:51;10.55;;;8.65;;
17566;SDS011;8901;52.088;5.084;2022-08-25T00:51:24;10.52;;;8.35;;
17566;SDS011;8901;52.088;5.084;2022-08-25T00:53:58;8.77;;;7.88;;
17566;SDS011;8901;52.088;5.084;2022-08-25T00:56:26;7.85;;;7.05;;
17566;SDS011;8901;52.088;5.084;2022-08-25T00:58:55;8.82;;;7.50;;
17566;SDS011;8901;52.088;5.084;2022-08-25T01:01:23;8.20;;;7.30;;
17566;SDS011;8901;52.088;5.084;2022-08-25T01:03:50;10.25;;;7.63;;
17566;SDS011;8901;52.088;5.084;2022-08-25T01:06:17;8.80;;;7.90;;
17566;SDS011;8901;52.088;5.084;2022-08-25T01:08:45;9.98;;;8.20;;
17566;SDS011;8901;52.088;5.084;2022-08-25T01:11:16;9.27;;;8.27;;
17566;SDS011;8901;52.088;5.084;2022-08-25T01:13:44;8.95;;;7.97;;
17566;SDS011;8901;52.088;5.084;2022-08-25T01:16:18;8.40;;;7.45;;
17566;SDS011;8901;52.088;5.084;2022-08-25T01:18:49;9.60;;;7.75;;
17566;SDS011;8901;52.088;5.084;2022-08-25T01:21:20;8.65;;;7.40;;
17566;SDS011;8901;52.088;5.084;2022-08-25T01:23:49;10.35;;;7.32;;
17566;SDS011;8901;52.088;5.084;2022-08-25T01:26:21;11.50;;;7.35;;
17566;SDS011;8901;52.088;5.084;2022-08-25T01:28:49;8.20;;;7.10;;
17566;SDS011;8901;52.088;5.084;2022-08-25T01:31:34;8.50;;;7.35;;
17566;SDS011;8901;52.088;5.084;2022-08-25T01:34:02;8.70;;;7.80;;
17566;SDS011;8901;52.088;5.084;2022-08-25T01:36:31;7.47;;;6.75;;
17566;SDS011;8901;52.088;5.084;2022-08-25T01:39:00;11.35;;;7.28;;
17566;SDS011;8901;52.088;5.084;2022-08-25T01:41:30;8.02;;;6.82;;
17566;SDS011;8901;52.088;5.084;2022-08-25T01:44:01;9.35;;;6.78;;
17566;SDS011;8901;52.088;5.084;2022-08-25T01:46:30;7.55;;;6.55;;
17566;SDS011;8901;52.088;5.084;2022-08-25T01:48:58;9.00;;;6.82;;
17566;SDS011;8901;52.088;5.084;2022-08-25T01:51:27;8.98;;;6.47;;
17566;SDS011;8901;52.088;5.084;2022-08-25T01:53:59;6.18;;;5.07;;
17566;SDS011;8901;52.088;5.084;2022-08-25T01:56:26;7.32;;;6.07;;
17566;SDS011;8901;52.088;5.084;2022-08-25T01:58:53;8.95;;;6.13;;
17566;SDS011;8901;52.088;5.084;2022-08-25T02:01:21;6.93;;;6.18;;
17566;SDS011;8901;52.088;5.084;2022-08-25T02:03:50;6.50;;;5.90;;
17566;SDS011;8901;52.088;5.084;2022-08-25T02:06:20;7.97;;;5.53;;
17566;SDS011;8901;52.088;5.084;2022-08-25T02:08:50;6.93;;;5.93;;
17566;SDS011;8901;52.088;5.084;2022-08-25T02:11:20;5.85;;;4.72;;
17566;SDS011;8901;52.088;5.084;2022-08-25T02:13:48;6.00;;;5.07;;
17566;SDS011;8901;52.088;5.084;2022-08-25T02:16:17;6.93;;;5.57;;
17566;SDS011;8901;52.088;5.084;2022-08-25T02:18:47;7.95;;;5.72;;
17566;SDS011;8901;52.088;5.084;2022-08-25T02:21:14;6.93;;;5.70;;
17566;SDS011;8901;52.088;5.084;2022-08-25T02:23:41;6.10;;;5.28;;
17566;SDS011;8901;52.088;5.084;2022-08-25T02:26:08;10.00;;;4.82;;
17566;SDS011;8901;52.088;5.084;2022-08-25T02:28:37;6.50;;;4.85;;
17566;SDS011;8901;52.088;5.084;2022-08-25T02:31:04;8.45;;;4.50;;
17566;SDS011;8901;52.088;5.084;2022-08-25T02:33:31;4.38;;;3.97;;
17566;SDS011;8901;52.088;5.084;2022-08-25T02:35:58;8.93;;;3.78;;
17566;SDS011;8901;52.088;5.084;2022-08-25T02:38:31;4.85;;;3.90;;
17566;SDS011;8901;52.088;5.084;2022-08-25T02:40:59;7.43;;;3.90;;
17566;SDS011;8901;52.088;5.084;2022-08-25T02:43:26;5.30;;;4.20;;
17566;SDS011;8901;52.088;5.084;2022-08-25T02:46:13;6.88;;;4.13;;
17566;SDS011;8901;52.088;5.084;2022-08-25T02:48:41;5.38;;;4.20;;
17566;SDS011;8901;52.088;5.084;2022-08-25T02:51:08;5.35;;;3.88;;
17566;SDS011;8901;52.088;5.084;2022-08-25T02:53:36;6.28;;;4.10;;
17566;SDS011;8901;52.088;5.084;2022-08-25T02:56:05;5.93;;;3.85;;
17566;SDS011;8901;52.088;5.084;2022-08-25T02:58:32;5.32;;;3.92;;
17566;SDS011;8901;52.088;5.084;2022-08-25T03:01:00;5.70;;;3.78;;
17566;SDS011;8901;52.088;5.084;2022-08-25T03:03:36;5.72;;;4.15;;
17566;SDS011;8901;52.088;5.084;2022-08-25T03:06:04;4.35;;;3.80;;
17566;SDS011;8901;52.088;5.084;2022-08-25T03:08:32;6.22;;;3.58;;
17566;SDS011;8901;52.088;5.084;2022-08-25T03:11:01;4.15;;;3.22;;
17566;SDS011;8901;52.088;5.084;2022-08-25T03:13:43;7.13;;;3.63;;
17566;SDS011;8901;52.088;5.084;2022-08-25T03:16:10;4.68;;;3.70;;
17566;SDS011;8901;52.088;5.084;2022-08-25T03:18:40;4.60;;;3.45;;
17566;SDS011;8901;52.088;5.084;2022-08-25T03:21:08;6.78;;;4.03;;
17566;SDS011;8901;52.088;5.084;2022-08-25T03:23:35;8.43;;;3.72;;
17566;SDS011;8901;52.088;5.084;2022-08-25T03:26:02;8.80;;;3.97;;
17566;SDS011;8901;52.088;5.084;2022-08-25T03:28:47;7.07;;;3.88;;
17566;SDS011;8901;52.088;5.084;2022-08-25T03:31:14;6.47;;;3.78;;
17566;SDS011;8901;52.088;5.084;2022-08-25T03:33:42;10.75;;;3.85;;
17566;SDS011;8901;52.088;5.084;2022-08-25T03:36:09;4.40;;;3.75;;
17566;SDS011;8901;52.088;5.084;2022-08-25T03:38:37;6.55;;;4.35;;
17566;SDS011;8901;52.088;5.084;2022-08-25T03:41:11;6.45;;;4.10;;
17566;SDS011;8901;52.088;5.084;2022-08-25T03:43:40;4.65;;;4.05;;
17566;SDS011;8901;52.088;5.084;2022-08-25T03:46:07;4.57;;;4.18;;
17566;SDS011;8901;52.088;5.084;2022-08-25T03:48:34;6.32;;;4.10;;
17566;SDS011;8901;52.088;5.084;2022-08-25T03:51:03;8.20;;;4.50;;
17566;SDS011;8901;52.088;5.084;2022-08-25T03:53:30;7.95;;;4.90;;
17566;SDS011;8901;52.088;5.084;2022-08-25T03:55:57;8.10;;;6.20;;
17566;SDS011;8901;52.088;5.084;2022-08-25T03:58:24;6.22;;;5.35;;
17566;SDS011;8901;52.088;5.084;2022-08-25T04:00:51;7.75;;;5.93;;
17566;SDS011;8901;52.088;5.084;2022-08-25T04:03:24;8.77;;;6.85;;
17566;SDS011;8901;52.088;5.084;2022-08-25T04:05:51;6.60;;;5.97;;
17566;SDS011;8901;52.088;5.084;2022-08-25T04:08:19;8.32;;;7.60;;
17566;SDS011;8901;52.088;5.084;2022-08-25T04:10:49;7.15;;;5.80;;
17566;SDS011;8901;52.088;5.084;2022-08-25T04:13:16;6.95;;;6.05;;
17566;SDS011;8901;52.088;5.084;2022-08-25T04:15:43;6.78;;;6.28;;
17566;SDS011;8901;52.088;5.084;2022-08-25T04:18:10;8.05;;;6.95;;
17566;SDS011;8901;52.088;5.084;2022-08-25T04:20:37;8.35;;;7.53;;
17566;SDS011;8901;52.088;5.084;2022-08-25T04:23:04;10.45;;;7.18;;
17566;SDS011;8901;52.088;5.084;2022-08-25T04:25:32;7.70;;;7.10;;
17566;SDS011;8901;52.088;5.084;2022-08-25T04:28:00;8.70;;;7.90;;
17566;SDS011;8901;52.088;5.084;2022-08-25T04:30:27;10.02;;;8.10;;
17566;SDS011;8901;52.088;5.084;2022-08-25T04:32:53;8.60;;;7.80;;
17566;SDS011;8901;52.088;5.084;2022-08-25T04:35:20;8.10;;;7.40;;
17566;SDS011;8901;52.088;5.084;2022-08-25T04:37:47;9.88;;;7.90;;
17566;SDS011;8901;52.088;5.084;2022-08-25T04:40:14;8.50;;;7.43;;
17566;SDS011;8901;52.088;5.084;2022-08-25T04:45:35;10.85;;;9.02;;
17566;SDS011;8901;52.088;5.084;2022-08-25T04:48:02;7.57;;;6.97;;
17566;SDS011;8901;52.088;5.084;2022-08-25T04:50:31;8.63;;;7.80;;
17566;SDS011;8901;52.088;5.084;2022-08-25T04:52:58;8.55;;;7.85;;
17566;SDS011;8901;52.088;5.084;2022-08-25T04:55:32;8.60;;;7.80;;
17566;SDS011;8901;52.088;5.084;2022-08-25T04:58:06;9.13;;;8.23;;
17566;SDS011;8901;52.088;5.084;2022-08-25T05:00:34;11.55;;;8.02;;
17566;SDS011;8901;52.088;5.084;2022-08-25T05:03:01;8.27;;;7.57;;
17566;SDS011;8901;52.088;5.084;2022-08-25T05:05:29;8.70;;;7.80;;
17566;SDS011;8901;52.088;5.084;2022-08-25T05:07:56;10.35;;;9.55;;
17566;SDS011;8901;52.088;5.084;2022-08-25T05:10:23;9.40;;;8.60;;
17566;SDS011;8901;52.088;5.084;2022-08-25T05:12:51;10.63;;;9.75;;
17566;SDS011;8901;52.088;5.084;2022-08-25T05:15:28;9.80;;;8.48;;
17566;SDS011;8901;52.088;5.084;2022-08-25T05:18:12;8.50;;;7.80;;
17566;SDS011;8901;52.088;5.084;2022-08-25T05:20:40;12.15;;;11.00;;
17566;SDS011;8901;52.088;5.084;2022-08-25T05:23:06;11.23;;;10.20;;
17566;SDS011;8901;52.088;5.084;2022-08-25T05:25:33;10.48;;;9.43;;
17566;SDS011;8901;52.088;5.084;2022-08-25T05:28:00;10.40;;;9.50;;
17566;SDS011;8901;52.088;5.084;2022-08-25T05:30:38;10.57;;;9.25;;
17566;SDS011;8901;52.088;5.084;2022-08-25T05:33:06;8.75;;;8.05;;
17566;SDS011;8901;52.088;5.084;2022-08-25T05:35:34;11.55;;;7.60;;
17566;SDS011;8901;52.088;5.084;2022-08-25T05:38:01;10.50;;;9.50;;
17566;SDS011;8901;52.088;5.084;2022-08-25T05:40:29;10.00;;;9.13;;
17566;SDS011;8901;52.088;5.084;2022-08-25T05:42:56;10.95;;;10.00;;
17566;SDS011;8901;52.088;5.084;2022-08-25T05:45:23;8.60;;;7.72;;
17566;SDS011;8901;52.088;5.084;2022-08-25T05:47:52;9.00;;;8.10;;
17566;SDS011;8901;52.088;5.084;2022-08-25T05:50:18;9.55;;;8.55;;
17566;SDS011;8901;52.088;5.084;2022-08-25T05:52:45;8.73;;;8.00;;
17566;SDS011;8901;52.088;5.084;2022-08-25T05:55:12;9.05;;;8.30;;
17566;SDS011;8901;52.088;5.084;2022-08-25T05:57:40;10.77;;;9.77;;
17566;SDS011;8901;52.088;5.084;2022-08-25T06:00:07;9.90;;;8.90;;
17566;SDS011;8901;52.088;5.084;2022-08-25T06:02:36;8.65;;;7.90;;
17566;SDS011;8901;52.088;5.084;2022-08-25T06:05:07;9.27;;;8.30;;
17566;SDS011;8901;52.088;5.084;2022-08-25T06:07:34;9.45;;;7.60;;
17566;SDS011;8901;52.088;5.084;2022-08-25T06:10:01;10.52;;;7.60;;
17566;SDS011;8901;52.088;5.084;2022-08-25T06:12:28;8.05;;;7.32;;
17566;SDS011;8901;52.088;5.084;2022-08-25T06:14:56;13.98;;;9.43;;
17566;SDS011;8901;52.088;5.084;2022-08-25T06:17:23;13.13;;;7.25;;
17566;SDS011;8901;52.088;5.084;2022-08-25T06:19:52;10.57;;;7.55;;
17566;SDS011;8901;52.088;5.084;2022-08-25T06:22:23;12.75;;;8.23;;
17566;SDS011;8901;52.088;5.084;2022-08-25T06:24:51;9.73;;;8.30;;
17566;SDS011;8901;52.088;5.084;2022-08-25T06:27:20;11.32;;;9.80;;
17566;SDS011;8901;52.088;5.084;2022-08-25T06:29:48;14.30;;;9.80;;
17566;SDS011;8901;52.088;5.084;2022-08-25T06:32:16;12.65;;;11.02;;
17566;SDS011;8901;52.088;5.084;2022-08-25T06:34:43;14.00;;;12.32;;
17566;SDS011;8901;52.088;5.084;2022-08-25T06:37:10;13.52;;;11.48;;
17566;SDS011;8901;52.088;5.084;2022-08-25T06:39:38;12.88;;;11.68;;
17566;SDS011;8901;52.088;5.084;2022-08-25T06:42:05;12.90;;;11.70;;
17566;SDS011;8901;52.088;5.084;2022-08-25T06:44:32;13.27;;;12.27;;
17566;SDS011;8901;52.088;5.084;2022-08-25T06:46:59;14.23;;;12.93;;
17566;SDS011;8901;52.088;5.084;2022-08-25T06:49:26;14.05;;;12.82;;
17566;SDS011;8901;52.088;5.084;2022-08-25T06:51:53;15.13;;;13.82;;
17566;SDS011;8901;52.088;5.084;2022-08-25T06:54:20;14.63;;;13.43;;
17566;SDS011;8901;52.088;5.084;2022-08-25T06:56:48;14.23;;;13.15;;
17566;SDS011;8901;52.088;5.084;2022-08-25T06:59:15;16.40;;;14.40;;
17566;SDS011;8901;52.088;5.084;2022-08-25T07:01:42;15.82;;;14.65;;
17566;SDS011;8901;52.088;5.084;2022-08-25T07:04:09;15.18;;;13.95;;
17566;SDS011;8901;52.088;5.084;2022-08-25T07:06:36;16.73;;;14.27;;
17566;SDS011;8901;52.088;5.084;2022-08-25T07:09:04;16.55;;;15.10;;
17566;SDS011;8901;52.088;5.084;2022-08-25T07:11:33;15.88;;;14.77;;
17566;SDS011;8901;52.088;5.084;2022-08-25T07:14:01;16.98;;;15.35;;
17566;SDS011;8901;52.088;5.084;2022-08-25T07:16:29;16.30;;;15.15;;
17566;SDS011;8901;52.088;5.084;2022-08-25T07:18:57;17.70;;;16.10;;
17566;SDS011;8901;52.088;5.084;2022-08-25T07:21:25;17.08;;;15.63;;
17566;SDS011;8901;52.088;5.084;2022-08-25T07:23:53;16.75;;;15.43;;
17566;SDS011;8901;52.088;5.084;2022-08-25T07:26:23;16.15;;;14.95;;
17566;SDS011;8901;52.088;5.084;2022-08-25T07:28:53;17.75;;;16.17;;
17566;SDS011;8901;52.088;5.084;2022-08-25T07:31:21;17.65;;;16.17;;
17566;SDS011;8901;52.088;5.084;2022-08-25T07:33:48;16.10;;;14.70;;
17566;SDS011;8901;52.088;5.084;2022-08-25T07:36:32;14.45;;;13.23;;
17566;SDS011;8901;52.088;5.084;2022-08-25T07:38:59;15.95;;;14.55;;
17566;SDS011;8901;52.088;5.084;2022-08-25T07:41:29;14.25;;;13.15;;
17566;SDS011;8901;52.088;5.084;2022-08-25T07:43:56;15.80;;;14.20;;
17566;SDS011;8901;52.088;5.084;2022-08-25T07:46:25;16.30;;;14.98;;
17566;SDS011;8901;52.088;5.084;2022-08-25T07:48:52;15.05;;;13.07;;
17566;SDS011;8901;52.088;5.084;2022-08-25T07:51:19;17.83;;;15.88;;
17566;SDS011;8901;52.088;5.084;2022-08-25T07:53:46;17.00;;;15.60;;
17566;SDS011;8901;52.088;5.084;2022-08-25T07:56:13;16.52;;;14.85;;
17566;SDS011;8901;52.088;5.084;2022-08-25T07:58:41;16.85;;;15.25;;
17566;SDS011;8901;52.088;5.084;2022-08-25T08:01:12;15.13;;;13.82;;
17566;SDS011;8901;52.088;5.084;2022-08-25T08:03:40;15.38;;;14.18;;
17566;SDS011;8901;52.088;5.084;2022-08-25T08:06:07;16.27;;;14.60;;
17566;SDS011;8901;52.088;5.084;2022-08-25T08:08:36;19.33;;;15.75;;
17566;SDS011;8901;52.088;5.084;2022-08-25T08:11:03;16.88;;;15.10;;
17566;SDS011;8901;52.088;5.084;2022-08-25T08:13:30;17.45;;;15.70;;
17566;SDS011;8901;52.088;5.084;2022-08-25T08:15:58;16.48;;;14.88;;
17566;SDS011;8901;52.088;5.084;2022-08-25T08:18:25;17.17;;;15.85;;
17566;SDS011;8901;52.088;5.084;2022-08-25T08:20:53;16.33;;;14.93;;
17566;SDS011;8901;52.088;5.084;2022-08-25T08:23:20;17.90;;;15.88;;
17566;SDS011;8901;52.088;5.084;2022-08-25T08:25:51;18.13;;;16.50;;
17566;SDS011;8901;52.088;5.084;2022-08-25T08:28:20;18.25;;;16.52;;
17566;SDS011;8901;52.088;5.084;2022-08-25T08:30:51;18.02;;;16.73;;
17566;SDS011;8901;52.088;5.084;2022-08-25T08:33:18;18.52;;;17.40;;
17566;SDS011;8901;52.088;5.084;2022-08-25T08:35:46;17.40;;;15.70;;
17566;SDS011;8901;52.088;5.084;2022-08-25T08:38:21;18.75;;;17.25;;
17566;SDS011;8901;52.088;5.084;2022-08-25T08:40:51;18.48;;;16.88;;
17566;SDS011;8901;52.088;5.084;2022-08-25T08:43:45;17.00;;;15.70;;
17566;SDS011;8901;52.088;5.084;2022-08-25T08:46:18;19.42;;;17.25;;
17566;SDS011;8901;52.088;5.084;2022-08-25T08:48:50;16.05;;;14.70;;
17566;SDS011;8901;52.088;5.084;2022-08-25T08:51:27;15.85;;;14.70;;
17566;SDS011;8901;52.088;5.084;2022-08-25T08:54:00;17.35;;;15.93;;
17566;SDS011;8901;52.088;5.084;2022-08-25T08:56:33;20.10;;;18.50;;
17566;SDS011;8901;52.088;5.084;2022-08-25T08:59:08;17.25;;;15.50;;
17566;SDS011;8901;52.088;5.084;2022-08-25T09:01:40;17.73;;;16.33;;
17566;SDS011;8901;52.088;5.084;2022-08-25T09:04:12;17.75;;;16.27;;
17566;SDS011;8901;52.088;5.084;2022-08-25T09:06:45;17.52;;;16.17;;
17566;SDS011;8901;52.088;5.084;2022-08-25T09:09:25;17.42;;;16.13;;
17566;SDS011;8901;52.088;5.084;2022-08-25T09:11:58;17.88;;;16.40;;
17566;SDS011;8901;52.088;5.084;2022-08-25T09:14:36;18.10;;;16.63;;
17566;SDS011;8901;52.088;5.084;2022-08-25T09:17:12;18.95;;;17.25;;
17566;SDS011;8901;52.088;5.084;2022-08-25T09:19:53;17.58;;;16.38;;
17566;SDS011;8901;52.088;5.084;2022-08-25T09:22:42;18.55;;;16.77;;
17566;SDS011;8901;52.088;5.084;2022-08-25T09:25:19;18.27;;;16.70;;
17566;SDS011;8901;52.088;5.084;2022-08-25T09:27:52;18.67;;;16.92;;
17566;SDS011;8901;52.088;5.084;2022-08-25T09:30:30;18.02;;;16.83;;
17566;SDS011;8901;52.088;5.084;2022-08-25T09:33:04;18.75;;;17.10;;
17566;SDS011;8901;52.088;5.084;2022-08-25T09:35:33;18.70;;;17.20;;
17566;SDS011;8901;52.088;5.084;2022-08-25T09:38:05;19.10;;;17.38;;
17566;SDS011;8901;52.088;5.084;2022-08-25T09:40:36;19.15;;;17.30;;
17566;SDS011;8901;52.088;5.084;2022-08-25T09:43:08;17.17;;;16.00;;
17566;SDS011;8901;52.088;5.084;2022-08-25T09:45:57;17.35;;;16.25;;
17566;SDS011;8901;52.088;5.084;2022-08-25T09:48:27;18.02;;;16.85;;
17566;SDS011;8901;52.088;5.084;2022-08-25T09:51:07;18.98;;;17.67;;
17566;SDS011;8901;52.088;5.084;2022-08-25T09:53:42;18.83;;;17.17;;
17566;SDS011;8901;52.088;5.084;2022-08-25T09:56:18;18.00;;;16.45;;
17566;SDS011;8901;52.088;5.084;2022-08-25T09:58:47;17.77;;;16.38;;
17566;SDS011;8901;52.088;5.084;2022-08-25T10:01:17;17.92;;;16.58;;
17566;SDS011;8901;52.088;5.084;2022-08-25T10:03:58;17.83;;;16.50;;
17566;SDS011;8901;52.088;5.084;2022-08-25T10:06:28;18.58;;;16.90;;
17566;SDS011;8901;52.088;5.084;2022-08-25T10:14:31;52.45;;;47.53;;
17566;SDS011;8901;52.088;5.084;2022-08-25T10:17:14;23.55;;;21.67;;
17566;SDS011;8901;52.088;5.084;2022-08-25T10:19:48;31.15;;;28.40;;
17566;SDS011;8901;52.088;5.084;2022-08-25T10:22:20;27.40;;;25.05;;
17566;SDS011;8901;52.088;5.084;2022-08-25T10:24:49;26.25;;;23.92;;
17566;SDS011;8901;52.088;5.084;2022-08-25T10:27:23;31.52;;;28.58;;
17566;SDS011;8901;52.088;5.084;2022-08-25T10:30:07;26.45;;;24.10;;
17566;SDS011;8901;52.088;5.084;2022-08-25T10:35:44;25.60;;;23.35;;
17566;SDS011;8901;52.088;5.084;2022-08-25T10:38:24;22.10;;;20.10;;
17566;SDS011;8901;52.088;5.084;2022-08-25T10:41:04;20.45;;;18.75;;
17566;SDS011;8901;52.088;5.084;2022-08-25T10:43:45;22.65;;;20.85;;
17566;SDS011;8901;52.088;5.084;2022-08-25T10:46:19;21.48;;;19.80;;
17566;SDS011;8901;52.088;5.084;2022-08-25T10:48:57;20.73;;;19.23;;
17566;SDS011;8901;52.088;5.084;2022-08-25T10:51:40;21.45;;;19.60;;
17566;SDS011;8901;52.088;5.084;2022-08-25T10:54:23;20.58;;;18.77;;
17566;SDS011;8901;52.088;5.084;2022-08-25T10:57:03;21.00;;;19.35;;
17566;SDS011;8901;52.088;5.084;2022-08-25T10:59:47;20.60;;;18.83;;
17566;SDS011;8901;52.088;5.084;2022-08-25T11:02:30;21.17;;;19.38;;
17566;SDS011;8901;52.088;5.084;2022-08-25T11:05:20;20.83;;;19.30;;
17566;SDS011;8901;52.088;5.084;2022-08-25T11:07:52;20.23;;;17.95;;
17566;SDS011;8901;52.088;5.084;2022-08-25T11:10:24;19.23;;;17.95;;
17566;SDS011;8901;52.088;5.084;2022-08-25T11:13:06;18.90;;;17.65;;
17566;SDS011;8901;52.088;5.084;2022-08-25T11:15:43;19.25;;;17.60;;
17566;SDS011;8901;52.088;5.084;2022-08-25T11:18:18;18.35;;;17.17;;
17566;SDS011;8901;52.088;5.084;2022-08-25T11:20:48;19.20;;;17.80;;
17566;SDS011;8901;52.088;5.084;2022-08-25T11:23:24;18.67;;;17.13;;
17566;SDS011;8901;52.088;5.084;2022-08-25T11:25:56;18.55;;;17.27;;
17566;SDS011;8901;52.088;5.084;2022-08-25T11:28:29;18.70;;;17.25;;
17566;SDS011;8901;52.088;5.084;2022-08-25T11:31:02;18.63;;;17.23;;
17566;SDS011;8901;52.088;5.084;2022-08-25T11:33:30;19.45;;;18.05;;
17566;SDS011;8901;52.088;5.084;2022-08-25T11:35:58;18.50;;;17.30;;
17566;SDS011;8901;52.088;5.084;2022-08-25T11:38:35;19.65;;;18.15;;
17566;SDS011;8901;52.088;5.084;2022-08-25T11:41:15;18.50;;;17.17;;
17566;SDS011;8901;52.088;5.084;2022-08-25T11:43:53;18.75;;;17.63;;
17566;SDS011;8901;52.088;5.084;2022-08-25T11:46:46;18.75;;;17.40;;
17566;SDS011;8901;52.088;5.084;2022-08-25T11:49:31;19.35;;;17.63;;
17566;SDS011;8901;52.088;5.084;2022-08-25T11:55:14;19.20;;;17.90;;
17566;SDS011;8901;52.088;5.084;2022-08-25T11:57:43;19.08;;;17.75;;
17566;SDS011;8901;52.088;5.084;2022-08-25T12:00:13;18.92;;;17.73;;
17566;SDS011;8901;52.088;5.084;2022-08-25T12:03:08;19.58;;;17.90;;
17566;SDS011;8901;52.088;5.084;2022-08-25T12:06:19;19.20;;;17.85;;
17566;SDS011;8901;52.088;5.084;2022-08-25T12:08:51;19.48;;;17.95;;
17566;SDS011;8901;52.088;5.084;2022-08-25T12:14:13;19.45;;;17.90;;
17566;SDS011;8901;52.088;5.084;2022-08-25T12:16:43;19.15;;;17.75;;
17566;SDS011;8901;52.088;5.084;2022-08-25T12:19:46;19.52;;;18.17;;
17566;SDS011;8901;52.088;5.084;2022-08-25T12:25:18;19.10;;;17.70;;
17566;SDS011;8901;52.088;5.084;2022-08-25T12:27:57;18.95;;;17.75;;
17566;SDS011;8901;52.088;5.084;2022-08-25T12:33:22;18.67;;;17.48;;
17566;SDS011;8901;52.088;5.084;2022-08-25T12:36:04;18.55;;;17.35;;
17566;SDS011;8901;52.088;5.084;2022-08-25T12:38:36;19.63;;;17.73;;
17566;SDS011;8901;52.088;5.084;2022-08-25T12:41:08;19.20;;;17.67;;
17566;SDS011;8901;52.088;5.084;2022-08-25T12:43:37;19.25;;;17.83;;
17566;SDS011;8901;52.088;5.084;2022-08-25T12:48:59;18.77;;;17.38;;
17566;SDS011;8901;52.088;5.084;2022-08-25T12:57:49;19.85;;;18.45;;
17566;SDS011;8901;52.088;5.084;2022-08-25T13:00:24;20.00;;;18.52;;
17566;SDS011;8901;52.088;5.084;2022-08-25T13:03:12;19.25;;;17.85;;
17566;SDS011;8901;52.088;5.084;2022-08-25T13:06:04;19.52;;;17.98;;
17566;SDS011;8901;52.088;5.084;2022-08-25T13:11:38;18.98;;;17.55;;
17566;SDS011;8901;52.088;5.084;2022-08-25T13:14:12;19.33;;;17.77;;
17566;SDS011;8901;52.088;5.084;2022-08-25T13:16:50;18.65;;;17.23;;
17566;SDS011;8901;52.088;5.084;2022-08-25T13:19:19;19.48;;;17.83;;
17566;SDS011;8901;52.088;5.084;2022-08-25T13:21:46;19.60;;;18.00;;
17566;SDS011;8901;52.088;5.084;2022-08-25T13:24:15;19.30;;;17.83;;
17566;SDS011;8901;52.088;5.084;2022-08-25T13:26:51;20.10;;;18.40;;
17566;SDS011;8901;52.088;5.084;2022-08-25T13:29:21;19.08;;;17.75;;
17566;SDS011;8901;52.088;5.084;2022-08-25T13:34:34;18.98;;;17.58;;
17566;SDS011;8901;52.088;5.084;2022-08-25T13:37:05;19.08;;;17.70;;
17566;SDS011;8901;52.088;5.084;2022-08-25T13:40:05;19.20;;;17.88;;
17566;SDS011;8901;52.088;5.084;2022-08-25T13:42:35;19.45;;;17.90;;
17566;SDS011;8901;52.088;5.084;2022-08-25T13:45:03;18.52;;;17.35;;
17566;SDS011;8901;52.088;5.084;2022-08-25T13:47:32;18.98;;;17.67;;
17566;SDS011;8901;52.088;5.084;2022-08-25T13:50:14;18.80;;;17.33;;
17566;SDS011;8901;52.088;5.084;2022-08-25T13:52:45;18.42;;;17.13;;
17566;SDS011;8901;52.088;5.084;2022-08-25T13:57:54;17.70;;;16.15;;
17566;SDS011;8901;52.088;5.084;2022-08-25T14:00:27;18.90;;;16.85;;
17566;SDS011;8901;52.088;5.084;2022-08-25T14:02:57;17.35;;;16.25;;
17566;SDS011;8901;52.088;5.084;2022-08-25T14:05:30;18.05;;;16.67;;
17566;SDS011;8901;52.088;5.084;2022-08-25T14:08:00;17.35;;;16.17;;
17566;SDS011;8901;52.088;5.084;2022-08-25T14:10:32;17.55;;;16.25;;
17566;SDS011;8901;52.088;5.084;2022-08-25T14:13:13;18.90;;;17.50;;
17566;SDS011;8901;52.088;5.084;2022-08-25T14:15:53;18.33;;;16.88;;
17566;SDS011;8901;52.088;5.084;2022-08-25T14:18:21;17.98;;;16.77;;
17566;SDS011;8901;52.088;5.084;2022-08-25T14:20:52;17.65;;;16.45;;
17566;SDS011;8901;52.088;5.084;2022-08-25T14:23:21;16.90;;;15.77;;
17566;SDS011;8901;52.088;5.084;2022-08-25T14:25:51;17.67;;;16.30;;
17566;SDS011;8901;52.088;5.084;2022-08-25T14:28:22;17.27;;;16.02;;
17566;SDS011;8901;52.088;5.084;2022-08-25T14:30:51;17.10;;;15.95;;
17566;SDS011;8901;52.088;5.084;2022-08-25T14:33:20;17.38;;;16.17;;
17566;SDS011;8901;52.088;5.084;2022-08-25T14:35:50;16.88;;;15.75;;
17566;SDS011;8901;52.088;5.084;2022-08-25T14:38:19;17.65;;;16.25;;
17566;SDS011;8901;52.088;5.084;2022-08-25T14:40:46;17.38;;;16.02;;
17566;SDS011;8901;52.088;5.084;2022-08-25T14:43:13;17.90;;;16.48;;
17566;SDS011;8901;52.088;5.084;2022-08-25T14:45:42;17.65;;;16.27;;
17566;SDS011;8901;52.088;5.084;2022-08-25T14:48:12;17.80;;;16.60;;
17566;SDS011;8901;52.088;5.084;2022-08-25T14:50:44;17.30;;;16.30;;
17566;SDS011;8901;52.088;5.084;2022-08-25T14:53:11;18.20;;;16.83;;
17566;SDS011;8901;52.088;5.084;2022-08-25T14:55:38;18.63;;;17.23;;
17566;SDS011;8901;52.088;5.084;2022-08-25T14:58:05;17.88;;;16.33;;
17566;SDS011;8901;52.088;5.084;2022-08-25T15:00:33;17.15;;;16.05;;
17566;SDS011;8901;52.088;5.084;2022-08-25T15:03:03;18.08;;;16.88;;
17566;SDS011;8901;52.088;5.084;2022-08-25T15:05:30;18.13;;;16.65;;
17566;SDS011;8901;52.088;5.084;2022-08-25T15:07:57;18.25;;;16.85;;
17566;SDS011;8901;52.088;5.084;2022-08-25T15:10:42;18.00;;;16.80;;
17566;SDS011;8901;52.088;5.084;2022-08-25T15:13:10;17.90;;;16.80;;
17566;SDS011;8901;52.088;5.084;2022-08-25T15:15:39;18.52;;;17.25;;
17566;SDS011;8901;52.088;5.084;2022-08-25T15:18:11;17.10;;;16.05;;
17566;SDS011;8901;52.088;5.084;2022-08-25T15:20:39;17.02;;;15.70;;
17566;SDS011;8901;52.088;5.084;2022-08-25T15:23:06;17.60;;;16.30;;
17566;SDS011;8901;52.088;5.084;2022-08-25T15:25:33;17.90;;;16.73;;
17566;SDS011;8901;52.088;5.084;2022-08-25T15:28:02;17.50;;;16.20;;
17566;SDS011;8901;52.088;5.084;2022-08-25T15:30:30;17.95;;;16.65;;
17566;SDS011;8901;52.088;5.084;2022-08-25T15:32:56;18.08;;;16.77;;
17566;SDS011;8901;52.088;5.084;2022-08-25T15:35:25;16.88;;;15.57;;
17566;SDS011;8901;52.088;5.084;2022-08-25T15:37:52;17.90;;;16.63;;
17566;SDS011;8901;52.088;5.084;2022-08-25T15:40:20;18.60;;;17.05;;
17566;SDS011;8901;52.088;5.084;2022-08-25T15:42:49;19.58;;;18.00;;
17566;SDS011;8901;52.088;5.084;2022-08-25T15:45:15;19.02;;;17.70;;
17566;SDS011;8901;52.088;5.084;2022-08-25T15:47:42;19.08;;;17.40;;
17566;SDS011;8901;52.088;5.084;2022-08-25T15:50:11;19.33;;;17.83;;